Centerville, Utah
Current Conditions -  °F | °C
As of 6:53 AM on Monday 20 Oct 2014 (Local Time) from KSLC Reporting Station
Broken Clouds Broken Clouds  
Wind Chill: 50°   Ceiling: 11000
Heat Index: 50°   Visibility: 10mi
Dew Point: 39°   Wind: 6mph
Humidity: 66%   Direction: 130°SE
Pressure: 30.04"   Gusts: NA
Location:  40.92°N, 111.87°W
Report Text: KSLC 201253Z 13005KT 10SM BKN110 10/04 A3004 RMK AO2 SLP144 T01000039
Loading
Personal Weather Stations






























Interactive Weather Map
Tropical Storm Tracking
New forecast layout! Learn more

10-Day Weather Forecast

Advertisements
Track Severe Weather on mobile